sensor_id;sensor_type;location;lat;lon;timestamp;P1;durP1;ratioP1;P2;durP2;ratioP2
39314;SDS011;28703;44.412;11.918;2023-05-03T00:00:14;5.72;;;2.22;;
39314;SDS011;28703;44.412;11.918;2023-05-03T00:02:41;6.70;;;2.22;;
39314;SDS011;28703;44.412;11.918;2023-05-03T00:05:08;3.58;;;2.10;;
39314;SDS011;28703;44.412;11.918;2023-05-03T00:07:36;8.25;;;2.65;;
39314;SDS011;28703;44.412;11.918;2023-05-03T00:10:04;6.18;;;2.67;;
39314;SDS011;28703;44.412;11.918;2023-05-03T00:12:31;4.50;;;2.22;;
39314;SDS011;28703;44.412;11.918;2023-05-03T00:14:56;8.68;;;2.50;;
39314;SDS011;28703;44.412;11.918;2023-05-03T00:17:22;3.83;;;2.05;;
39314;SDS011;28703;44.412;11.918;2023-05-03T00:19:48;3.92;;;2.25;;
39314;SDS011;28703;44.412;11.918;2023-05-03T00:22:14;5.90;;;2.22;;
39314;SDS011;28703;44.412;11.918;2023-05-03T00:24:40;2.78;;;1.80;;
39314;SDS011;28703;44.412;11.918;2023-05-03T00:27:05;3.00;;;2.15;;
39314;SDS011;28703;44.412;11.918;2023-05-03T00:29:32;4.45;;;2.03;;
39314;SDS011;28703;44.412;11.918;2023-05-03T00:31:58;7.38;;;2.17;;
39314;SDS011;28703;44.412;11.918;2023-05-03T00:34:24;6.30;;;2.17;;
39314;SDS011;28703;44.412;11.918;2023-05-03T00:36:50;5.38;;;2.03;;
39314;SDS011;28703;44.412;11.918;2023-05-03T00:39:15;3.60;;;2.25;;
39314;SDS011;28703;44.412;11.918;2023-05-03T00:41:41;4.50;;;1.60;;
39314;SDS011;28703;44.412;11.918;2023-05-03T00:44:07;2.75;;;1.75;;
39314;SDS011;28703;44.412;11.918;2023-05-03T00:46:33;3.92;;;1.65;;
39314;SDS011;28703;44.412;11.918;2023-05-03T00:48:59;4.25;;;1.17;;
39314;SDS011;28703;44.412;11.918;2023-05-03T00:51:26;5.00;;;1.75;;
39314;SDS011;28703;44.412;11.918;2023-05-03T00:53:52;4.32;;;1.42;;
39314;SDS011;28703;44.412;11.918;2023-05-03T00:56:18;3.90;;;1.35;;
39314;SDS011;28703;44.412;11.918;2023-05-03T00:58:49;1.88;;;1.42;;
39314;SDS011;28703;44.412;11.918;2023-05-03T01:01:15;1.30;;;1.20;;
39314;SDS011;28703;44.412;11.918;2023-05-03T01:03:42;3.88;;;1.55;;
39314;SDS011;28703;44.412;11.918;2023-05-03T01:17:22;5.80;;;2.08;;
39314;SDS011;28703;44.412;11.918;2023-05-03T01:20:11;3.42;;;1.63;;
39314;SDS011;28703;44.412;11.918;2023-05-03T01:25:22;2.13;;;1.50;;
39314;SDS011;28703;44.412;11.918;2023-05-03T01:27:48;1.20;;;1.10;;
39314;SDS011;28703;44.412;11.918;2023-05-03T01:30:14;2.78;;;1.75;;
39314;SDS011;28703;44.412;11.918;2023-05-03T01:35:28;6.15;;;1.77;;
39314;SDS011;28703;44.412;11.918;2023-05-03T01:38:03;4.30;;;1.80;;
39314;SDS011;28703;44.412;11.918;2023-05-03T01:40:30;4.65;;;1.60;;
39314;SDS011;28703;44.412;11.918;2023-05-03T01:42:58;2.70;;;1.52;;
39314;SDS011;28703;44.412;11.918;2023-05-03T01:45:26;3.95;;;1.40;;
39314;SDS011;28703;44.412;11.918;2023-05-03T01:47:54;1.70;;;1.40;;
39314;SDS011;28703;44.412;11.918;2023-05-03T01:50:21;1.73;;;1.40;;
39314;SDS011;28703;44.412;11.918;2023-05-03T01:52:48;2.03;;;1.52;;
39314;SDS011;28703;44.412;11.918;2023-05-03T01:55:16;2.53;;;1.67;;
39314;SDS011;28703;44.412;11.918;2023-05-03T01:57:43;4.28;;;2.05;;
39314;SDS011;28703;44.412;11.918;2023-05-03T02:00:09;3.60;;;1.48;;
39314;SDS011;28703;44.412;11.918;2023-05-03T02:02:38;6.00;;;1.80;;
39314;SDS011;28703;44.412;11.918;2023-05-03T02:05:05;3.13;;;1.52;;
39314;SDS011;28703;44.412;11.918;2023-05-03T02:07:32;3.03;;;1.40;;
39314;SDS011;28703;44.412;11.918;2023-05-03T02:09:58;3.20;;;2.10;;
39314;SDS011;28703;44.412;11.918;2023-05-03T02:12:23;1.63;;;1.45;;
39314;SDS011;28703;44.412;11.918;2023-05-03T02:14:50;1.67;;;1.50;;
39314;SDS011;28703;44.412;11.918;2023-05-03T02:17:16;3.60;;;1.60;;
39314;SDS011;28703;44.412;11.918;2023-05-03T02:19:43;2.95;;;1.60;;
39314;SDS011;28703;44.412;11.918;2023-05-03T02:22:09;2.63;;;1.67;;
39314;SDS011;28703;44.412;11.918;2023-05-03T02:24:35;7.38;;;2.20;;
39314;SDS011;28703;44.412;11.918;2023-05-03T02:27:02;4.40;;;1.92;;
39314;SDS011;28703;44.412;11.918;2023-05-03T02:29:30;3.67;;;1.50;;
39314;SDS011;28703;44.412;11.918;2023-05-03T02:31:58;2.08;;;1.75;;
39314;SDS011;28703;44.412;11.918;2023-05-03T02:34:25;1.88;;;1.73;;
39314;SDS011;28703;44.412;11.918;2023-05-03T02:36:52;1.73;;;1.60;;
39314;SDS011;28703;44.412;11.918;2023-05-03T02:39:19;1.77;;;1.50;;
39314;SDS011;28703;44.412;11.918;2023-05-03T02:41:45;2.90;;;1.65;;
39314;SDS011;28703;44.412;11.918;2023-05-03T02:44:11;3.38;;;1.48;;
39314;SDS011;28703;44.412;11.918;2023-05-03T02:46:37;2.20;;;1.77;;
39314;SDS011;28703;44.412;11.918;2023-05-03T02:49:04;3.70;;;1.48;;
39314;SDS011;28703;44.412;11.918;2023-05-03T02:51:31;1.27;;;1.05;;
39314;SDS011;28703;44.412;11.918;2023-05-03T02:53:57;1.60;;;1.50;;
39314;SDS011;28703;44.412;11.918;2023-05-03T02:56:24;1.58;;;1.48;;
39314;SDS011;28703;44.412;11.918;2023-05-03T02:58:51;3.45;;;1.60;;
39314;SDS011;28703;44.412;11.918;2023-05-03T03:01:19;1.50;;;1.20;;
39314;SDS011;28703;44.412;11.918;2023-05-03T03:03:46;1.88;;;1.65;;
39314;SDS011;28703;44.412;11.918;2023-05-03T03:06:12;2.45;;;1.60;;
39314;SDS011;28703;44.412;11.918;2023-05-03T03:08:39;1.58;;;1.50;;
39314;SDS011;28703;44.412;11.918;2023-05-03T03:11:06;3.03;;;1.88;;
39314;SDS011;28703;44.412;11.918;2023-05-03T03:13:32;4.85;;;1.98;;
39314;SDS011;28703;44.412;11.918;2023-05-03T03:16:06;2.78;;;1.70;;
39314;SDS011;28703;44.412;11.918;2023-05-03T03:18:34;4.30;;;1.60;;
39314;SDS011;28703;44.412;11.918;2023-05-03T03:21:01;5.40;;;1.75;;
39314;SDS011;28703;44.412;11.918;2023-05-03T03:23:29;2.05;;;1.65;;
39314;SDS011;28703;44.412;11.918;2023-05-03T03:25:56;1.65;;;1.55;;
39314;SDS011;28703;44.412;11.918;2023-05-03T03:28:23;3.67;;;2.38;;
39314;SDS011;28703;44.412;11.918;2023-05-03T03:30:49;2.97;;;1.67;;
39314;SDS011;28703;44.412;11.918;2023-05-03T03:33:22;3.08;;;1.70;;
39314;SDS011;28703;44.412;11.918;2023-05-03T03:35:49;3.75;;;1.45;;
39314;SDS011;28703;44.412;11.918;2023-05-03T03:38:17;5.35;;;1.80;;
39314;SDS011;28703;44.412;11.918;2023-05-03T03:40:51;2.25;;;1.67;;
39314;SDS011;28703;44.412;11.918;2023-05-03T03:43:18;4.75;;;1.60;;
39314;SDS011;28703;44.412;11.918;2023-05-03T03:45:45;2.15;;;1.52;;
39314;SDS011;28703;44.412;11.918;2023-05-03T03:48:13;3.03;;;1.50;;
39314;SDS011;28703;44.412;11.918;2023-05-03T03:50:39;3.67;;;1.50;;
39314;SDS011;28703;44.412;11.918;2023-05-03T03:53:10;1.95;;;1.40;;
39314;SDS011;28703;44.412;11.918;2023-05-03T03:55:38;2.67;;;1.60;;
39314;SDS011;28703;44.412;11.918;2023-05-03T03:58:05;2.83;;;1.30;;
39314;SDS011;28703;44.412;11.918;2023-05-03T04:00:35;1.88;;;1.30;;
39314;SDS011;28703;44.412;11.918;2023-05-03T04:03:07;3.60;;;1.20;;
39314;SDS011;28703;44.412;11.918;2023-05-03T04:05:33;3.20;;;1.33;;
39314;SDS011;28703;44.412;11.918;2023-05-03T04:07:59;3.42;;;1.77;;
39314;SDS011;28703;44.412;11.918;2023-05-03T04:10:28;1.85;;;1.40;;
39314;SDS011;28703;44.412;11.918;2023-05-03T04:12:54;4.68;;;1.70;;
39314;SDS011;28703;44.412;11.918;2023-05-03T04:15:20;2.25;;;1.55;;
39314;SDS011;28703;44.412;11.918;2023-05-03T04:17:46;3.15;;;1.60;;
39314;SDS011;28703;44.412;11.918;2023-05-03T04:20:14;1.67;;;1.38;;
39314;SDS011;28703;44.412;11.918;2023-05-03T04:22:45;9.77;;;1.95;;
39314;SDS011;28703;44.412;11.918;2023-05-03T04:25:15;2.78;;;1.77;;
39314;SDS011;28703;44.412;11.918;2023-05-03T04:27:46;2.88;;;1.83;;
39314;SDS011;28703;44.412;11.918;2023-05-03T04:30:14;3.58;;;1.90;;
39314;SDS011;28703;44.412;11.918;2023-05-03T04:32:46;5.53;;;2.00;;
39314;SDS011;28703;44.412;11.918;2023-05-03T04:35:14;2.55;;;1.63;;
39314;SDS011;28703;44.412;11.918;2023-05-03T04:37:44;4.45;;;2.10;;
39314;SDS011;28703;44.412;11.918;2023-05-03T04:40:16;2.58;;;1.80;;
39314;SDS011;28703;44.412;11.918;2023-05-03T04:42:50;3.80;;;2.13;;
39314;SDS011;28703;44.412;11.918;2023-05-03T04:45:17;7.03;;;2.40;;
39314;SDS011;28703;44.412;11.918;2023-05-03T04:47:44;3.05;;;2.38;;
39314;SDS011;28703;44.412;11.918;2023-05-03T04:50:13;5.50;;;2.40;;
39314;SDS011;28703;44.412;11.918;2023-05-03T04:52:43;2.72;;;2.15;;
39314;SDS011;28703;44.412;11.918;2023-05-03T04:55:13;5.00;;;2.50;;
39314;SDS011;28703;44.412;11.918;2023-05-03T04:57:39;2.40;;;2.20;;
39314;SDS011;28703;44.412;11.918;2023-05-03T05:00:15;2.85;;;2.53;;
39314;SDS011;28703;44.412;11.918;2023-05-03T05:02:47;2.50;;;2.30;;
39314;SDS011;28703;44.412;11.918;2023-05-03T05:05:14;2.53;;;2.42;;
39314;SDS011;28703;44.412;11.918;2023-05-03T05:07:41;3.25;;;2.42;;
39314;SDS011;28703;44.412;11.918;2023-05-03T05:10:09;3.80;;;2.65;;
39314;SDS011;28703;44.412;11.918;2023-05-03T05:12:38;2.80;;;2.60;;
39314;SDS011;28703;44.412;11.918;2023-05-03T05:15:06;4.43;;;3.20;;
39314;SDS011;28703;44.412;11.918;2023-05-03T05:17:33;5.20;;;3.00;;
39314;SDS011;28703;44.412;11.918;2023-05-03T05:20:03;3.03;;;2.83;;
39314;SDS011;28703;44.412;11.918;2023-05-03T05:22:34;3.50;;;3.10;;
39314;SDS011;28703;44.412;11.918;2023-05-03T05:25:06;3.40;;;3.10;;
39314;SDS011;28703;44.412;11.918;2023-05-03T05:27:33;7.30;;;3.25;;
39314;SDS011;28703;44.412;11.918;2023-05-03T05:30:01;3.88;;;3.35;;
39314;SDS011;28703;44.412;11.918;2023-05-03T05:32:30;3.47;;;3.25;;
39314;SDS011;28703;44.412;11.918;2023-05-03T05:34:57;3.38;;;3.03;;
39314;SDS011;28703;44.412;11.918;2023-05-03T05:37:25;5.72;;;3.63;;
39314;SDS011;28703;44.412;11.918;2023-05-03T05:39:54;4.07;;;3.42;;
39314;SDS011;28703;44.412;11.918;2023-05-03T05:42:24;4.60;;;3.20;;
39314;SDS011;28703;44.412;11.918;2023-05-03T05:44:51;3.80;;;3.30;;
39314;SDS011;28703;44.412;11.918;2023-05-03T05:47:18;6.45;;;3.80;;
39314;SDS011;28703;44.412;11.918;2023-05-03T05:49:46;5.75;;;3.70;;
39314;SDS011;28703;44.412;11.918;2023-05-03T05:52:13;4.20;;;3.80;;
39314;SDS011;28703;44.412;11.918;2023-05-03T05:54:39;5.65;;;4.07;;
39314;SDS011;28703;44.412;11.918;2023-05-03T05:57:06;4.50;;;3.70;;
39314;SDS011;28703;44.412;11.918;2023-05-03T05:59:33;4.05;;;3.53;;
39314;SDS011;28703;44.412;11.918;2023-05-03T06:01:59;3.40;;;3.10;;
39314;SDS011;28703;44.412;11.918;2023-05-03T06:04:28;3.58;;;3.28;;
39314;SDS011;28703;44.412;11.918;2023-05-03T06:06:55;6.38;;;3.28;;
39314;SDS011;28703;44.412;11.918;2023-05-03T06:09:21;3.42;;;3.05;;
39314;SDS011;28703;44.412;11.918;2023-05-03T06:11:47;5.03;;;3.20;;
39314;SDS011;28703;44.412;11.918;2023-05-03T06:14:14;3.42;;;3.10;;
39314;SDS011;28703;44.412;11.918;2023-05-03T06:16:41;3.10;;;2.90;;
39314;SDS011;28703;44.412;11.918;2023-05-03T06:19:07;3.67;;;3.30;;
39314;SDS011;28703;44.412;11.918;2023-05-03T06:21:33;3.35;;;2.97;;
39314;SDS011;28703;44.412;11.918;2023-05-03T06:23:59;3.63;;;3.40;;
39314;SDS011;28703;44.412;11.918;2023-05-03T06:26:27;4.85;;;3.25;;
39314;SDS011;28703;44.412;11.918;2023-05-03T06:28:53;3.95;;;3.15;;
39314;SDS011;28703;44.412;11.918;2023-05-03T06:31:19;3.60;;;3.30;;
39314;SDS011;28703;44.412;11.918;2023-05-03T06:33:46;6.38;;;3.90;;
39314;SDS011;28703;44.412;11.918;2023-05-03T06:36:16;4.78;;;4.32;;
39314;SDS011;28703;44.412;11.918;2023-05-03T06:38:42;7.78;;;3.28;;
39314;SDS011;28703;44.412;11.918;2023-05-03T06:41:14;3.85;;;3.38;;
39314;SDS011;28703;44.412;11.918;2023-05-03T06:43:42;3.90;;;3.60;;
39314;SDS011;28703;44.412;11.918;2023-05-03T06:46:10;3.10;;;2.90;;
39314;SDS011;28703;44.412;11.918;2023-05-03T06:48:37;3.80;;;3.40;;
39314;SDS011;28703;44.412;11.918;2023-05-03T06:51:04;4.72;;;3.58;;
39314;SDS011;28703;44.412;11.918;2023-05-03T06:53:34;3.05;;;2.85;;
39314;SDS011;28703;44.412;11.918;2023-05-03T06:56:00;3.35;;;2.90;;
39314;SDS011;28703;44.412;11.918;2023-05-03T06:58:27;3.58;;;3.28;;
39314;SDS011;28703;44.412;11.918;2023-05-03T07:00:53;4.28;;;3.65;;
39314;SDS011;28703;44.412;11.918;2023-05-03T07:03:22;4.78;;;3.60;;
39314;SDS011;28703;44.412;11.918;2023-05-03T07:05:51;3.25;;;3.05;;
39314;SDS011;28703;44.412;11.918;2023-05-03T07:08:20;3.28;;;2.95;;
39314;SDS011;28703;44.412;11.918;2023-05-03T07:10:48;4.25;;;3.47;;
39314;SDS011;28703;44.412;11.918;2023-05-03T07:13:14;3.78;;;3.42;;
39314;SDS011;28703;44.412;11.918;2023-05-03T07:15:40;10.82;;;3.53;;
39314;SDS011;28703;44.412;11.918;2023-05-03T07:18:17;4.40;;;4.00;;
39314;SDS011;28703;44.412;11.918;2023-05-03T07:20:43;3.70;;;3.38;;
39314;SDS011;28703;44.412;11.918;2023-05-03T07:23:09;9.55;;;4.50;;
39314;SDS011;28703;44.412;11.918;2023-05-03T07:25:40;5.45;;;4.07;;
39314;SDS011;28703;44.412;11.918;2023-05-03T07:28:07;4.32;;;3.92;;
39314;SDS011;28703;44.412;11.918;2023-05-03T07:30:38;4.13;;;3.80;;
39314;SDS011;28703;44.412;11.918;2023-05-03T07:33:05;7.90;;;4.43;;
39314;SDS011;28703;44.412;11.918;2023-05-03T07:35:34;5.50;;;5.05;;
39314;SDS011;28703;44.412;11.918;2023-05-03T07:38:05;6.55;;;5.50;;
39314;SDS011;28703;44.412;11.918;2023-05-03T07:40:31;6.90;;;5.85;;
39314;SDS011;28703;44.412;11.918;2023-05-03T07:43:00;6.85;;;6.25;;
39314;SDS011;28703;44.412;11.918;2023-05-03T07:45:28;9.98;;;7.57;;
39314;SDS011;28703;44.412;11.918;2023-05-03T07:47:54;10.57;;;7.13;;
39314;SDS011;28703;44.412;11.918;2023-05-03T07:50:23;8.70;;;7.35;;
39314;SDS011;28703;44.412;11.918;2023-05-03T07:52:49;9.25;;;8.35;;
39314;SDS011;28703;44.412;11.918;2023-05-03T07:55:16;9.07;;;8.20;;
39314;SDS011;28703;44.412;11.918;2023-05-03T07:57:44;8.93;;;8.13;;
39314;SDS011;28703;44.412;11.918;2023-05-03T08:00:10;9.90;;;8.90;;
39314;SDS011;28703;44.412;11.918;2023-05-03T08:02:43;9.68;;;8.82;;
39314;SDS011;28703;44.412;11.918;2023-05-03T08:07:46;11.07;;;10.07;;
39314;SDS011;28703;44.412;11.918;2023-05-03T08:10:16;10.35;;;9.18;;
39314;SDS011;28703;44.412;11.918;2023-05-03T08:12:42;11.38;;;10.23;;
39314;SDS011;28703;44.412;11.918;2023-05-03T08:15:11;11.02;;;10.02;;
39314;SDS011;28703;44.412;11.918;2023-05-03T08:17:41;10.85;;;9.80;;
39314;SDS011;28703;44.412;11.918;2023-05-03T08:20:16;11.05;;;9.73;;
39314;SDS011;28703;44.412;11.918;2023-05-03T08:22:42;11.18;;;10.18;;
39314;SDS011;28703;44.412;11.918;2023-05-03T08:25:09;11.63;;;10.43;;
39314;SDS011;28703;44.412;11.918;2023-05-03T08:27:36;10.82;;;9.73;;
39314;SDS011;28703;44.412;11.918;2023-05-03T08:30:03;12.13;;;9.88;;
39314;SDS011;28703;44.412;11.918;2023-05-03T08:32:32;11.32;;;10.43;;
39314;SDS011;28703;44.412;11.918;2023-05-03T08:34:59;10.63;;;9.77;;
39314;SDS011;28703;44.412;11.918;2023-05-03T08:37:26;10.85;;;9.77;;
39314;SDS011;28703;44.412;11.918;2023-05-03T08:39:56;9.77;;;8.95;;
39314;SDS011;28703;44.412;11.918;2023-05-03T08:42:22;9.35;;;8.55;;
39314;SDS011;28703;44.412;11.918;2023-05-03T08:44:48;8.52;;;7.68;;
39314;SDS011;28703;44.412;11.918;2023-05-03T08:47:18;11.57;;;9.82;;
39314;SDS011;28703;44.412;11.918;2023-05-03T08:49:46;9.80;;;9.00;;
39314;SDS011;28703;44.412;11.918;2023-05-03T08:52:13;9.35;;;8.55;;
39314;SDS011;28703;44.412;11.918;2023-05-03T08:54:40;10.55;;;9.45;;
39314;SDS011;28703;44.412;11.918;2023-05-03T08:57:10;9.23;;;8.52;;
39314;SDS011;28703;44.412;11.918;2023-05-03T08:59:51;8.60;;;7.80;;
39314;SDS011;28703;44.412;11.918;2023-05-03T09:02:21;7.65;;;7.05;;
39314;SDS011;28703;44.412;11.918;2023-05-03T09:04:52;7.90;;;7.10;;
39314;SDS011;28703;44.412;11.918;2023-05-03T09:07:21;8.70;;;7.90;;
39314;SDS011;28703;44.412;11.918;2023-05-03T09:12:37;8.68;;;7.47;;
39314;SDS011;28703;44.412;11.918;2023-05-03T09:15:07;9.57;;;7.68;;
39314;SDS011;28703;44.412;11.918;2023-05-03T09:18:12;8.18;;;7.47;;
39314;SDS011;28703;44.412;11.918;2023-05-03T09:20:42;11.02;;;7.80;;
39314;SDS011;28703;44.412;11.918;2023-05-03T09:25:55;8.05;;;7.28;;
39314;SDS011;28703;44.412;11.918;2023-05-03T09:28:25;7.88;;;7.18;;
39314;SDS011;28703;44.412;11.918;2023-05-03T09:31:04;8.60;;;7.80;;
39314;SDS011;28703;44.412;11.918;2023-05-03T09:33:31;9.82;;;8.20;;
39314;SDS011;28703;44.412;11.918;2023-05-03T09:35:58;8.82;;;8.07;;
39314;SDS011;28703;44.412;11.918;2023-05-03T09:38:32;8.52;;;7.82;;
39314;SDS011;28703;44.412;11.918;2023-05-03T09:41:01;8.32;;;7.53;;
39314;SDS011;28703;44.412;11.918;2023-05-03T09:43:30;9.70;;;7.90;;
39314;SDS011;28703;44.412;11.918;2023-05-03T09:46:17;8.23;;;7.55;;
39314;SDS011;28703;44.412;11.918;2023-05-03T09:48:43;11.48;;;8.68;;
39314;SDS011;28703;44.412;11.918;2023-05-03T09:51:10;11.27;;;8.65;;
39314;SDS011;28703;44.412;11.918;2023-05-03T09:53:37;8.35;;;7.55;;
39314;SDS011;28703;44.412;11.918;2023-05-03T09:56:04;7.82;;;6.90;;
39314;SDS011;28703;44.412;11.918;2023-05-03T09:58:37;9.68;;;7.78;;
39314;SDS011;28703;44.412;11.918;2023-05-03T10:01:07;7.80;;;7.13;;
39314;SDS011;28703;44.412;11.918;2023-05-03T10:03:41;9.27;;;8.45;;
39314;SDS011;28703;44.412;11.918;2023-05-03T10:27:15;8.70;;;6.90;;
39314;SDS011;28703;44.412;11.918;2023-05-03T10:29:44;7.10;;;5.68;;
39314;SDS011;28703;44.412;11.918;2023-05-03T10:35:01;7.20;;;6.05;;
39314;SDS011;28703;44.412;11.918;2023-05-03T10:37:35;6.28;;;5.68;;
39314;SDS011;28703;44.412;11.918;2023-05-03T10:40:06;6.10;;;5.60;;
39314;SDS011;28703;44.412;11.918;2023-05-03T10:42:33;6.78;;;6.18;;
39314;SDS011;28703;44.412;11.918;2023-05-03T10:45:00;6.28;;;5.78;;
39314;SDS011;28703;44.412;11.918;2023-05-03T10:47:28;7.18;;;6.32;;
39314;SDS011;28703;44.412;11.918;2023-05-03T10:55:11;5.47;;;5.00;;
39314;SDS011;28703;44.412;11.918;2023-05-03T10:57:40;6.57;;;5.03;;
39314;SDS011;28703;44.412;11.918;2023-05-03T11:00:11;7.45;;;5.15;;
39314;SDS011;28703;44.412;11.918;2023-05-03T11:05:34;4.93;;;4.43;;
39314;SDS011;28703;44.412;11.918;2023-05-03T11:08:19;8.05;;;6.18;;
39314;SDS011;28703;44.412;11.918;2023-05-03T11:10:49;5.50;;;5.07;;
39314;SDS011;28703;44.412;11.918;2023-05-03T11:13:22;5.40;;;4.40;;
39314;SDS011;28703;44.412;11.918;2023-05-03T11:15:48;6.47;;;5.35;;
39314;SDS011;28703;44.412;11.918;2023-05-03T11:18:14;6.57;;;5.32;;
39314;SDS011;28703;44.412;11.918;2023-05-03T11:20:40;5.32;;;4.90;;
39314;SDS011;28703;44.412;11.918;2023-05-03T11:23:06;5.18;;;4.68;;
39314;SDS011;28703;44.412;11.918;2023-05-03T11:25:33;5.43;;;4.80;;
39314;SDS011;28703;44.412;11.918;2023-05-03T11:28:00;5.30;;;4.47;;
39314;SDS011;28703;44.412;11.918;2023-05-03T11:30:26;7.03;;;4.50;;
39314;SDS011;28703;44.412;11.918;2023-05-03T11:32:53;7.40;;;4.68;;
39314;SDS011;28703;44.412;11.918;2023-05-03T11:35:20;7.10;;;4.75;;
39314;SDS011;28703;44.412;11.918;2023-05-03T11:37:48;5.55;;;4.68;;
39314;SDS011;28703;44.412;11.918;2023-05-03T11:40:15;4.95;;;4.55;;
39314;SDS011;28703;44.412;11.918;2023-05-03T11:42:54;5.32;;;4.85;;
39314;SDS011;28703;44.412;11.918;2023-05-03T11:45:23;4.82;;;4.43;;
39314;SDS011;28703;44.412;11.918;2023-05-03T11:47:50;8.00;;;4.97;;
39314;SDS011;28703;44.412;11.918;2023-05-03T11:50:17;5.35;;;4.85;;
39314;SDS011;28703;44.412;11.918;2023-05-03T11:52:43;12.48;;;6.03;;
39314;SDS011;28703;44.412;11.918;2023-05-03T11:55:10;6.78;;;4.95;;
39314;SDS011;28703;44.412;11.918;2023-05-03T11:57:36;7.10;;;5.28;;
39314;SDS011;28703;44.412;11.918;2023-05-03T12:00:12;4.93;;;4.53;;
39314;SDS011;28703;44.412;11.918;2023-05-03T12:02:41;8.27;;;4.63;;
39314;SDS011;28703;44.412;11.918;2023-05-03T12:05:14;10.50;;;5.10;;
39314;SDS011;28703;44.412;11.918;2023-05-03T12:07:40;5.30;;;4.80;;
39314;SDS011;28703;44.412;11.918;2023-05-03T12:10:14;6.30;;;5.70;;
39314;SDS011;28703;44.412;11.918;2023-05-03T12:12:53;6.15;;;5.53;;
39314;SDS011;28703;44.412;11.918;2023-05-03T12:15:33;5.20;;;4.68;;
39314;SDS011;28703;44.412;11.918;2023-05-03T12:18:04;6.72;;;6.07;;
39314;SDS011;28703;44.412;11.918;2023-05-03T12:20:35;5.97;;;5.38;;
39314;SDS011;28703;44.412;11.918;2023-05-03T12:23:03;5.40;;;4.88;;
39314;SDS011;28703;44.412;11.918;2023-05-03T12:25:32;7.15;;;4.40;;
39314;SDS011;28703;44.412;11.918;2023-05-03T12:28:01;4.43;;;4.03;;
39314;SDS011;28703;44.412;11.918;2023-05-03T12:30:29;5.50;;;4.60;;
39314;SDS011;28703;44.412;11.918;2023-05-03T12:32:56;4.78;;;4.32;;
39314;SDS011;28703;44.412;11.918;2023-05-03T12:35:22;6.95;;;4.80;;
39314;SDS011;28703;44.412;11.918;2023-05-03T12:37:50;5.28;;;4.88;;
39314;SDS011;28703;44.412;11.918;2023-05-03T12:40:17;5.88;;;5.38;;
39314;SDS011;28703;44.412;11.918;2023-05-03T12:42:54;5.22;;;4.82;;
39314;SDS011;28703;44.412;11.918;2023-05-03T12:45:20;8.55;;;5.63;;
39314;SDS011;28703;44.412;11.918;2023-05-03T12:47:46;6.25;;;5.15;;
39314;SDS011;28703;44.412;11.918;2023-05-03T12:50:12;5.22;;;4.82;;
39314;SDS011;28703;44.412;11.918;2023-05-03T12:52:38;5.63;;;4.55;;
39314;SDS011;28703;44.412;11.918;2023-05-03T12:55:04;6.32;;;4.80;;
39314;SDS011;28703;44.412;11.918;2023-05-03T12:57:31;6.85;;;5.03;;
39314;SDS011;28703;44.412;11.918;2023-05-03T12:59:57;6.47;;;5.25;;
39314;SDS011;28703;44.412;11.918;2023-05-03T13:02:24;5.65;;;4.75;;
39314;SDS011;28703;44.412;11.918;2023-05-03T13:04:50;7.07;;;5.07;;
39314;SDS011;28703;44.412;11.918;2023-05-03T13:07:23;7.78;;;4.45;;
39314;SDS011;28703;44.412;11.918;2023-05-03T13:09:52;5.45;;;4.50;;
39314;SDS011;28703;44.412;11.918;2023-05-03T13:12:19;7.30;;;4.57;;
39314;SDS011;28703;44.412;11.918;2023-05-03T13:14:49;5.00;;;4.47;;
39314;SDS011;28703;44.412;11.918;2023-05-03T13:17:18;5.55;;;5.05;;
39314;SDS011;28703;44.412;11.918;2023-05-03T13:19:46;4.65;;;4.25;;
39314;SDS011;28703;44.412;11.918;2023-05-03T13:22:13;5.22;;;4.20;;
39314;SDS011;28703;44.412;11.918;2023-05-03T13:24:40;8.13;;;4.47;;
39314;SDS011;28703;44.412;11.918;2023-05-03T13:27:07;5.88;;;4.50;;
39314;SDS011;28703;44.412;11.918;2023-05-03T13:29:35;6.60;;;4.78;;
39314;SDS011;28703;44.412;11.918;2023-05-03T13:32:02;9.38;;;4.47;;
39314;SDS011;28703;44.412;11.918;2023-05-03T13:34:28;4.57;;;4.10;;
39314;SDS011;28703;44.412;11.918;2023-05-03T13:36:54;9.25;;;4.88;;
39314;SDS011;28703;44.412;11.918;2023-05-03T13:39:20;6.10;;;4.47;;
39314;SDS011;28703;44.412;11.918;2023-05-03T13:41:46;7.63;;;4.82;;
39314;SDS011;28703;44.412;11.918;2023-05-03T13:44:13;5.05;;;4.22;;
39314;SDS011;28703;44.412;11.918;2023-05-03T13:46:39;5.85;;;5.05;;
39314;SDS011;28703;44.412;11.918;2023-05-03T13:49:06;10.85;;;4.40;;
39314;SDS011;28703;44.412;11.918;2023-05-03T13:51:32;5.50;;;4.55;;
39314;SDS011;28703;44.412;11.918;2023-05-03T13:53:59;5.03;;;4.60;;
39314;SDS011;28703;44.412;11.918;2023-05-03T13:56:26;7.28;;;4.47;;
39314;SDS011;28703;44.412;11.918;2023-05-03T13:58:52;8.07;;;4.60;;
39314;SDS011;28703;44.412;11.918;2023-05-03T14:01:22;8.68;;;4.22;;
39314;SDS011;28703;44.412;11.918;2023-05-03T14:03:49;5.35;;;4.43;;
39314;SDS011;28703;44.412;11.918;2023-05-03T14:06:16;6.00;;;5.03;;
39314;SDS011;28703;44.412;11.918;2023-05-03T14:08:42;7.18;;;4.93;;
39314;SDS011;28703;44.412;11.918;2023-05-03T14:11:14;9.57;;;5.65;;
39314;SDS011;28703;44.412;11.918;2023-05-03T14:13:41;5.68;;;5.18;;
39314;SDS011;28703;44.412;11.918;2023-05-03T14:16:14;6.80;;;4.90;;
39314;SDS011;28703;44.412;11.918;2023-05-03T14:18:41;11.00;;;4.70;;
39314;SDS011;28703;44.412;11.918;2023-05-03T14:21:07;12.13;;;4.63;;
39314;SDS011;28703;44.412;11.918;2023-05-03T14:23:33;14.88;;;4.78;;
39314;SDS011;28703;44.412;11.918;2023-05-03T14:26:00;9.10;;;5.60;;
39314;SDS011;28703;44.412;11.918;2023-05-03T14:28:26;7.88;;;4.82;;
39314;SDS011;28703;44.412;11.918;2023-05-03T14:30:54;7.13;;;5.00;;
39314;SDS011;28703;44.412;11.918;2023-05-03T14:33:20;6.60;;;5.90;;
39314;SDS011;28703;44.412;11.918;2023-05-03T14:35:46;8.77;;;4.55;;
39314;SDS011;28703;44.412;11.918;2023-05-03T14:38:12;4.53;;;3.40;;
39314;SDS011;28703;44.412;11.918;2023-05-03T14:40:39;5.72;;;3.90;;
39314;SDS011;28703;44.412;11.918;2023-05-03T14:43:06;7.20;;;4.40;;
39314;SDS011;28703;44.412;11.918;2023-05-03T14:45:33;7.13;;;4.07;;
39314;SDS011;28703;44.412;11.918;2023-05-03T14:47:59;7.03;;;3.72;;
39314;SDS011;28703;44.412;11.918;2023-05-03T14:50:26;3.75;;;3.13;;
39314;SDS011;28703;44.412;11.918;2023-05-03T14:52:52;4.10;;;3.47;;
39314;SDS011;28703;44.412;11.918;2023-05-03T14:55:18;5.40;;;4.05;;
39314;SDS011;28703;44.412;11.918;2023-05-03T14:57:44;3.67;;;3.38;;
39314;SDS011;28703;44.412;11.918;2023-05-03T15:00:09;3.30;;;3.10;;
39314;SDS011;28703;44.412;11.918;2023-05-03T15:02:38;5.32;;;3.67;;
39314;SDS011;28703;44.412;11.918;2023-05-03T15:05:06;5.78;;;3.30;;
39314;SDS011;28703;44.412;11.918;2023-05-03T15:07:32;6.90;;;3.47;;
39314;SDS011;28703;44.412;11.918;2023-05-03T15:10:02;4.15;;;2.80;;
39314;SDS011;28703;44.412;11.918;2023-05-03T15:12:28;4.20;;;3.13;;
39314;SDS011;28703;44.412;11.918;2023-05-03T15:14:55;4.38;;;2.90;;
39314;SDS011;28703;44.412;11.918;2023-05-03T15:17:21;2.97;;;2.78;;
39314;SDS011;28703;44.412;11.918;2023-05-03T15:19:50;4.40;;;2.80;;
39314;SDS011;28703;44.412;11.918;2023-05-03T15:22:17;8.23;;;2.70;;
39314;SDS011;28703;44.412;11.918;2023-05-03T15:24:44;5.78;;;3.50;;
39314;SDS011;28703;44.412;11.918;2023-05-03T15:27:11;5.90;;;2.88;;
39314;SDS011;28703;44.412;11.918;2023-05-03T15:29:37;4.32;;;3.00;;
39314;SDS011;28703;44.412;11.918;2023-05-03T15:32:03;3.80;;;3.13;;
39314;SDS011;28703;44.412;11.918;2023-05-03T15:34:29;6.82;;;3.20;;